YPTN/KTR METAR and TAF weather

Enter ICAO airport designator
Station Type Date Time Source
YPTN METAR 2019/05/23 18:30 UTC NOAA

YPTN 231830Z AUTO 16007KT 9999 // NCD 17/13 Q1014


Station Type Date Time Source
YPTN Decoded METAR 2019/05/23 18:30 UTC NOAA

Tindal / Katherine, Australia (YPTN) 14-26S 132-16E 109M
May 23, 2019 - 02:30 PM EDT / 2019.05.23 1830 UTC
Wind: from the SSE (160 degrees) at 8 MPH (7 KT):0
Visibility: greater than 7 mile(s):0
Temperature: 62 F (17 C)
Dew Point: 55 F (13 C)
Relative Humidity: 77%
Pressure (altimeter): 29.94 in. Hg (1014 hPa)
ob: YPTN 231830Z AUTO 16007KT 9999 // NCD 17/13 Q1014
cycle: 18

Station Type Date Time Source
YPTN TAF 2019/05/23 18:33 UTC NOAA

TAF YPTN 231702Z 2318/2418 10005KT CAVOK
FM232100 12005KT 9999 SCT012
FM240000 13012KT CAVOK
FM240900 14005KT CAVOK

Example: see airport list